createdAt,value
2022-11-24T00:01:06.259Z,29.55
2022-11-24T00:04:29.133Z,30.80
2022-11-24T00:07:41.034Z,29.95
2022-11-24T00:10:53.343Z,29.53
2022-11-24T00:14:19.467Z,30.70
2022-11-24T00:17:33.568Z,30.05
2022-11-24T00:20:45.553Z,27.58
2022-11-24T00:31:42.266Z,28.48
2022-11-24T00:35:07.739Z,25.95
2022-11-24T00:38:19.954Z,25.08
2022-11-24T00:41:33.990Z,24.25
2022-11-24T00:44:46.086Z,25.55
2022-11-24T00:48:07.452Z,26.08
2022-11-24T00:51:22.221Z,26.45
2022-11-24T00:58:15.167Z,25.73
2022-11-24T01:01:31.386Z,24.25
2022-11-24T01:29:35.861Z,26.23
2022-11-24T01:32:47.950Z,24.58
2022-11-24T01:36:00.996Z,26.18
2022-11-24T01:39:13.565Z,24.98
2022-11-24T01:42:25.835Z,26.03
2022-11-24T01:45:45.024Z,25.15
2022-11-24T01:49:02.714Z,25.60
2022-11-24T01:56:37.026Z,26.98
2022-11-24T01:59:49.575Z,27.58
2022-11-24T02:03:06.567Z,26.95
2022-11-24T02:06:22.679Z,27.08
2022-11-24T02:09:40.764Z,28.00
2022-11-24T02:12:55.519Z,26.43
2022-11-24T02:16:21.996Z,27.45
2022-11-24T02:19:50.239Z,29.10
2022-11-24T02:23:24.263Z,28.35
2022-11-24T02:31:03.877Z,27.90
2022-11-24T02:37:57.571Z,27.55
2022-11-24T02:41:13.365Z,27.80
2022-11-24T02:44:44.224Z,26.63
2022-11-24T02:47:56.177Z,25.85
2022-11-24T02:51:08.492Z,28.35
2022-11-24T02:54:20.581Z,28.35
2022-11-24T02:57:32.473Z,27.60
2022-11-24T03:04:24.744Z,25.88
2022-11-24T03:07:36.784Z,25.25
2022-11-24T03:10:49.367Z,25.60
2022-11-24T03:14:01.277Z,25.15
2022-11-24T03:17:13.366Z,24.25
2022-11-24T03:20:25.879Z,22.23
2022-11-24T03:23:48.837Z,22.85
2022-11-24T03:27:00.926Z,23.35
2022-11-24T03:30:17.852Z,23.18
2022-11-24T03:33:30.990Z,22.45
2022-11-24T03:36:50.924Z,20.80
2022-11-24T03:40:02.881Z,21.60
2022-11-24T03:43:15.891Z,21.55
2022-11-24T03:46:28.907Z,22.10
2022-11-24T03:49:41.757Z,22.90
2022-11-24T03:52:53.598Z,21.73
2022-11-24T03:56:06.202Z,19.98
2022-11-24T03:59:19.593Z,20.03
2022-11-24T04:02:32.731Z,21.05
2022-11-24T04:05:44.940Z,20.28
2022-11-24T04:08:57.337Z,20.18
2022-11-24T04:12:24.303Z,18.85
2022-11-24T04:15:47.333Z,19.38
2022-11-24T04:19:01.416Z,19.53
2022-11-24T04:22:13.300Z,20.78
2022-11-24T04:45:06.188Z,19.18
2022-11-24T04:48:18.219Z,19.10
2022-11-24T04:51:30.308Z,19.60
2022-11-24T04:54:42.864Z,19.70
2022-11-24T04:58:02.552Z,18.20
2022-11-24T05:01:15.993Z,18.75
2022-11-24T05:04:37.521Z,19.05
2022-11-24T05:07:49.856Z,20.00
2022-11-24T05:11:02.073Z,19.40
2022-11-24T05:14:23.694Z,18.53
2022-11-24T05:17:39.467Z,19.98
2022-11-24T05:20:51.691Z,20.50
2022-11-24T05:24:03.798Z,20.43
2022-11-24T05:27:16.027Z,21.23
2022-11-24T05:30:29.233Z,21.50
2022-11-24T05:33:43.473Z,21.48
2022-11-24T05:37:00.761Z,20.83
2022-11-24T05:47:06.526Z,20.75
2022-11-24T05:50:22.821Z,20.55
2022-11-24T05:53:34.823Z,20.83
2022-11-24T05:56:46.904Z,22.93
2022-11-24T05:59:59.235Z,21.88
2022-11-24T06:03:23.401Z,22.70
2022-11-24T06:06:35.547Z,23.48
2022-11-24T06:09:48.690Z,22.33
2022-11-24T06:13:02.263Z,25.85
2022-11-24T06:16:15.095Z,27.48
2022-11-24T06:19:28.018Z,27.55
2022-11-24T06:22:40.242Z,29.90
2022-11-24T06:25:52.441Z,29.40
2022-11-24T06:29:05.457Z,31.83
2022-11-24T06:32:17.680Z,34.15
2022-11-24T06:35:29.671Z,30.40
2022-11-24T06:38:42.606Z,30.25
2022-11-24T06:41:57.187Z,32.30
2022-11-24T06:45:10.244Z,32.70
2022-11-24T06:48:22.177Z,32.33
2022-11-24T06:51:34.479Z,34.13
2022-11-24T06:54:46.779Z,35.00
2022-11-24T06:57:59.059Z,33.98
2022-11-24T07:01:11.043Z,33.55
2022-11-24T07:04:23.359Z,36.83
2022-11-24T07:07:35.254Z,36.30
2022-11-24T07:10:47.725Z,37.15
2022-11-24T07:14:00.245Z,33.83
2022-11-24T07:17:12.675Z,34.10
2022-11-24T07:20:25.258Z,35.13
2022-11-24T07:23:37.975Z,35.88
2022-11-24T07:26:49.829Z,35.43
2022-11-24T07:30:01.781Z,31.63
2022-11-24T07:33:13.767Z,30.55
2022-11-24T07:36:26.226Z,30.10
2022-11-24T07:39:38.392Z,30.88
2022-11-24T07:42:50.297Z,29.50
2022-11-24T07:46:03.162Z,29.10
2022-11-24T07:49:15.094Z,28.78
2022-11-24T07:52:27.193Z,28.28
2022-11-24T07:55:39.018Z,27.00
2022-11-24T07:58:53.026Z,29.50
2022-11-24T08:02:04.933Z,29.13
2022-11-24T08:05:17.551Z,28.00
2022-11-24T08:08:31.738Z,28.43
2022-11-24T08:11:43.615Z,28.75
2022-11-24T08:14:56.720Z,29.05
2022-11-24T08:18:10.609Z,29.08
2022-11-24T08:21:23.613Z,29.18
2022-11-24T08:24:36.000Z,29.50
2022-11-24T08:27:48.184Z,28.48
2022-11-24T08:31:07.588Z,31.30
2022-11-24T08:34:19.829Z,29.05
2022-11-24T08:37:31.655Z,34.95
2022-11-24T08:40:43.655Z,35.38
2022-11-24T08:43:56.246Z,34.30
2022-11-24T08:47:08.718Z,34.55
2022-11-24T08:50:21.373Z,33.98
2022-11-24T08:53:33.125Z,34.83
2022-11-24T08:56:45.201Z,36.55
2022-11-24T08:59:56.980Z,36.70
2022-11-24T09:03:08.780Z,36.35
2022-11-24T09:06:23.085Z,34.75
2022-11-24T09:09:35.421Z,35.23
2022-11-24T09:12:47.420Z,34.18
2022-11-24T09:15:59.215Z,32.95
2022-11-24T09:19:12.801Z,33.58
2022-11-24T09:22:24.675Z,32.13
2022-11-24T09:25:36.688Z,32.65
2022-11-24T09:28:50.239Z,31.73
2022-11-24T09:32:06.757Z,30.55
2022-11-24T09:35:17.090Z,30.45
2022-11-24T09:38:29.287Z,29.83
2022-11-24T09:42:07.375Z,28.45
2022-11-24T09:46:04.045Z,28.03
2022-11-24T09:48:55.343Z,25.78
2022-11-24T09:55:37.765Z,24.23
2022-11-24T09:58:53.391Z,25.15
2022-11-24T10:02:06.213Z,25.25
2022-11-24T10:05:20.346Z,23.33
2022-11-24T10:08:49.872Z,24.35
2022-11-24T10:12:10.584Z,23.28
2022-11-24T10:15:42.396Z,23.60
2022-11-24T10:19:05.281Z,24.25
2022-11-24T10:22:31.537Z,24.40
2022-11-24T10:25:51.325Z,24.93
2022-11-24T10:29:03.631Z,23.88
2022-11-24T10:32:22.083Z,24.78
2022-11-24T10:35:41.258Z,27.60
2022-11-24T10:39:00.603Z,28.00
2022-11-24T10:42:22.516Z,29.03
2022-11-24T10:45:37.650Z,29.68
2022-11-24T10:48:53.921Z,28.65
2022-11-24T10:52:16.695Z,29.63
2022-11-24T10:55:28.634Z,33.50
2022-11-24T10:58:42.888Z,35.55
2022-11-24T11:01:55.083Z,36.30
2022-11-24T11:05:35.256Z,37.48
2022-11-24T11:08:47.751Z,38.35
2022-11-24T11:12:10.010Z,39.05
2022-11-24T11:15:36.248Z,43.20
2022-11-24T11:18:52.311Z,45.75
2022-11-24T11:22:10.886Z,46.43
2022-11-24T11:25:34.028Z,43.43
2022-11-24T11:28:45.819Z,44.03
2022-11-24T11:35:26.942Z,47.08
2022-11-24T11:38:43.417Z,49.13
2022-11-24T11:42:03.020Z,48.50
2022-11-24T11:45:21.386Z,47.48
2022-11-24T11:48:43.635Z,47.33
2022-11-24T11:52:05.588Z,47.78
2022-11-24T11:55:49.684Z,49.68
2022-11-24T11:59:40.688Z,49.48
2022-11-24T12:03:36.188Z,48.48
2022-11-24T12:07:03.553Z,48.35
2022-11-24T12:10:25.733Z,49.30
2022-11-24T12:14:07.738Z,49.65
2022-11-24T12:17:25.622Z,47.98
2022-11-24T12:20:57.194Z,50.93
2022-11-24T12:24:15.785Z,49.40
2022-11-24T12:27:38.306Z,50.43
2022-11-24T12:30:56.762Z,48.05
2022-11-24T12:34:27.688Z,49.20
2022-11-24T12:37:58.522Z,51.03
2022-11-24T12:41:43.715Z,48.48
2022-11-24T12:45:22.702Z,48.10
2022-11-24T12:48:47.446Z,47.88
2022-11-24T12:52:04.223Z,48.00
2022-11-24T12:55:25.489Z,48.38
2022-11-24T12:58:45.739Z,45.45
2022-11-24T13:02:06.762Z,44.85
2022-11-24T13:05:29.594Z,43.40
2022-11-24T13:08:44.029Z,43.40
2022-11-24T13:12:02.131Z,47.73
2022-11-24T13:15:44.657Z,45.15
2022-11-24T13:18:56.007Z,45.95
2022-11-24T13:22:28.921Z,43.85
2022-11-24T13:25:42.290Z,47.73
2022-11-24T13:29:18.310Z,46.65
2022-11-24T13:33:06.358Z,45.53
2022-11-24T13:37:31.168Z,42.30
2022-11-24T13:41:06.281Z,43.88
2022-11-24T13:44:33.315Z,41.23
2022-11-24T13:47:50.481Z,42.28
2022-11-24T13:51:28.608Z,43.33
2022-11-24T13:54:41.133Z,42.53
2022-11-24T13:57:55.726Z,44.80
2022-11-24T14:01:22.393Z,40.23
2022-11-24T14:04:37.399Z,36.05
2022-11-24T14:07:51.300Z,32.80
2022-11-24T14:11:06.255Z,24.23
2022-11-24T14:14:27.058Z,27.05
2022-11-24T14:17:40.883Z,23.88
2022-11-24T14:20:52.958Z,24.20
2022-11-24T14:24:08.375Z,14.95
2022-11-24T14:27:24.550Z,12.98
2022-11-24T14:30:36.615Z,12.40
2022-11-24T14:33:48.525Z,11.63
2022-11-24T14:37:02.011Z,11.73
2022-11-24T14:40:47.012Z,11.48
2022-11-24T14:44:17.193Z,10.63
2022-11-24T14:47:36.266Z,10.70
2022-11-24T14:50:48.557Z,11.33
2022-11-24T14:54:04.090Z,12.20
2022-11-24T14:57:36.355Z,11.98
2022-11-24T15:00:48.115Z,11.35
2022-11-24T15:07:37.353Z,12.13
2022-11-24T15:10:49.820Z,13.25
2022-11-24T15:14:01.838Z,12.73
2022-11-24T15:17:13.786Z,12.73
2022-11-24T15:20:32.084Z,11.68
2022-11-24T15:23:45.766Z,12.83
2022-11-24T15:27:05.557Z,12.53
2022-11-24T15:30:20.380Z,11.38
2022-11-24T15:33:33.083Z,10.70
2022-11-24T15:36:45.039Z,10.78
2022-11-24T15:39:58.584Z,10.35
2022-11-24T15:43:30.412Z,11.58
2022-11-24T15:46:42.698Z,11.93
2022-11-24T15:49:55.236Z,10.65
2022-11-24T15:53:10.219Z,10.50
2022-11-24T15:56:31.567Z,11.43
2022-11-24T15:59:44.888Z,13.10
2022-11-24T16:03:00.052Z,14.78
2022-11-24T16:06:23.772Z,14.00
2022-11-24T16:09:31.903Z,13.65
2022-11-24T16:12:44.787Z,12.95
2022-11-24T16:15:57.689Z,15.38
2022-11-24T16:19:10.977Z,15.00
2022-11-24T16:22:24.561Z,14.98
2022-11-24T16:25:38.312Z,14.43
2022-11-24T16:28:53.670Z,14.43
2022-11-24T16:32:07.037Z,15.25
2022-11-24T16:35:20.151Z,15.05
2022-11-24T16:38:32.431Z,14.35
2022-11-24T16:41:44.740Z,13.95
2022-11-24T16:44:57.315Z,13.10
2022-11-24T16:48:09.965Z,14.28
2022-11-24T16:51:24.497Z,15.83
2022-11-24T16:54:37.862Z,13.38
2022-11-24T16:57:51.361Z,12.35
2022-11-24T17:01:10.837Z,12.15
2022-11-24T17:04:24.284Z,15.00
2022-11-24T17:07:37.690Z,15.90
2022-11-24T17:10:50.274Z,16.75
2022-11-24T17:14:04.208Z,16.38
2022-11-24T17:17:19.237Z,14.33
2022-11-24T17:20:33.458Z,16.15
2022-11-24T17:23:48.417Z,16.40
2022-11-24T17:27:02.613Z,16.73
2022-11-24T17:30:20.221Z,15.88
2022-11-24T17:33:35.545Z,15.78
2022-11-24T17:36:48.404Z,15.53
2022-11-24T17:40:26.970Z,16.88
2022-11-24T17:43:15.045Z,15.43
2022-11-24T17:46:27.916Z,14.95
2022-11-24T17:49:40.376Z,14.73
2022-11-24T17:52:52.295Z,15.10
2022-11-24T17:56:06.744Z,16.20
2022-11-24T17:59:18.968Z,15.80
2022-11-24T18:02:30.992Z,15.08
2022-11-24T18:05:44.891Z,14.48
2022-11-24T18:08:58.064Z,15.15
2022-11-24T18:12:10.958Z,15.55
2022-11-24T18:15:23.155Z,15.45
2022-11-24T18:18:40.036Z,15.18
2022-11-24T18:21:49.839Z,13.75
2022-11-24T18:25:02.049Z,14.50
2022-11-24T18:28:14.231Z,15.38
2022-11-24T18:31:26.430Z,15.40
2022-11-24T18:34:38.657Z,15.25
2022-11-24T18:37:51.066Z,15.15
2022-11-24T18:41:05.234Z,16.03
2022-11-24T18:44:17.407Z,15.85
2022-11-24T18:47:29.326Z,16.05
2022-11-24T18:50:41.368Z,16.50
2022-11-24T18:53:58.294Z,15.33
2022-11-24T19:00:22.041Z,18.00
2022-11-24T19:03:33.931Z,17.23
2022-11-24T19:06:46.731Z,19.48
2022-11-24T19:09:58.704Z,19.73
2022-11-24T19:13:10.723Z,21.88
2022-11-24T19:16:24.426Z,23.00
2022-11-24T19:19:37.301Z,22.25
2022-11-24T19:22:49.231Z,22.68
2022-11-24T19:26:01.162Z,21.83
2022-11-24T19:29:14.146Z,23.05
2022-11-24T19:32:26.077Z,24.08
2022-11-24T19:35:38.083Z,22.33
2022-11-24T19:38:54.448Z,20.85
2022-11-24T19:42:06.403Z,20.10
2022-11-24T19:45:18.935Z,22.85
2022-11-24T19:48:39.924Z,22.25
2022-11-24T19:51:52.054Z,22.23
2022-11-24T19:55:03.922Z,21.10
2022-11-24T19:58:15.979Z,20.18
2022-11-24T20:01:30.195Z,21.40
2022-11-24T20:04:43.066Z,20.73
2022-11-24T20:07:55.166Z,19.53
2022-11-24T20:11:13.312Z,19.88
2022-11-24T20:14:26.028Z,18.55
2022-11-24T20:17:37.925Z,18.10
2022-11-24T20:20:49.887Z,19.33
2022-11-24T20:24:04.216Z,18.73
2022-11-24T20:27:16.186Z,17.25
2022-11-24T20:30:28.201Z,16.25
2022-11-24T20:33:42.681Z,18.20
2022-11-24T20:36:56.868Z,19.18
2022-11-24T20:40:09.995Z,18.50
2022-11-24T20:43:21.930Z,17.75
2022-11-24T20:46:36.406Z,17.83
2022-11-24T20:49:48.282Z,18.53
2022-11-24T20:53:00.754Z,18.23
2022-11-24T20:56:16.003Z,18.60
2022-11-24T20:59:29.671Z,18.88
2022-11-24T21:02:41.203Z,18.98
2022-11-24T21:05:53.327Z,20.63
2022-11-24T21:09:05.375Z,20.78
2022-11-24T21:12:17.424Z,21.23
2022-11-24T21:15:29.688Z,20.20
2022-11-24T21:18:42.358Z,21.63
2022-11-24T21:21:54.601Z,20.40
2022-11-24T21:25:06.272Z,24.38
2022-11-24T21:28:18.258Z,25.18
2022-11-24T21:31:30.454Z,26.55
2022-11-24T21:34:42.207Z,27.90
2022-11-24T21:37:54.100Z,27.08
2022-11-24T21:41:09.630Z,28.88
2022-11-24T21:44:22.012Z,30.23
2022-11-24T21:47:34.282Z,29.20
2022-11-24T21:50:45.964Z,28.58
2022-11-24T21:53:58.113Z,26.58
2022-11-24T21:57:10.141Z,26.43
2022-11-24T22:00:25.069Z,28.98
2022-11-24T22:03:36.878Z,29.75
2022-11-24T22:06:48.743Z,28.03
2022-11-24T22:10:00.879Z,26.00
2022-11-24T22:13:12.820Z,25.83
2022-11-24T22:16:26.583Z,26.33
2022-11-24T22:19:38.468Z,28.38
2022-11-24T22:22:50.176Z,25.90
2022-11-24T22:26:01.963Z,23.13
2022-11-24T22:29:13.971Z,24.80
2022-11-24T22:32:25.663Z,25.98
2022-11-24T22:35:37.545Z,27.93
2022-11-24T22:38:50.362Z,28.80
2022-11-24T22:42:02.457Z,29.65
2022-11-24T22:45:16.945Z,28.40
2022-11-24T22:48:28.636Z,29.05
2022-11-24T22:51:43.736Z,30.65
2022-11-24T22:54:55.869Z,30.45
2022-11-24T22:58:07.735Z,29.88
2022-11-24T23:01:22.135Z,32.05
2022-11-24T23:04:34.197Z,34.80
2022-11-24T23:07:46.287Z,38.15
2022-11-24T23:11:04.222Z,39.03
2022-11-24T23:14:20.479Z,38.63
2022-11-24T23:17:32.268Z,38.88
2022-11-24T23:20:44.959Z,40.45
2022-11-24T23:23:58.323Z,42.88
2022-11-24T23:27:10.277Z,47.33
2022-11-24T23:30:22.427Z,49.45
2022-11-24T23:33:34.287Z,52.90
2022-11-24T23:36:46.382Z,53.70
2022-11-24T23:39:58.022Z,58.30
2022-11-24T23:43:09.689Z,60.73
2022-11-24T23:46:23.893Z,60.23
2022-11-24T23:49:36.327Z,59.58
2022-11-24T23:52:48.214Z,59.53
2022-11-24T23:56:03.345Z,57.48
2022-11-24T23:59:18.935Z,57.75
